Time;durP1;ratioP1;P1;durP2;ratioP2;P2;SDS_P1;SDS_P2;PMS_P1;PMS_P2;Temp;Humidity;BMP_temperature;BMP_pressure;BME280_temperature;BME280_humidity;BME280_pressure;Samples;Min_cycle;Max_cycle;Signal;HPM_P1;HPM_P2
2022/03/11 00:00:32;;;;;;;3.50;3.00;;;;;;;-1.99;100.00;101455.34;5032658;28;20188;-73
2022/03/11 00:02:59;;;;;;;4.10;3.47;;;;;;;-2.02;100.00;101455.09;5027958;28;20192;-74
2022/03/11 00:05:26;;;;;;;3.83;3.53;;;;;;;-2.06;100.00;101458.13;5014992;28;20684;-74
2022/03/11 00:07:53;;;;;;;6.23;4.23;;;;;;;-2.00;100.00;101453.59;5027963;28;20189;-74
2022/03/11 00:10:20;;;;;;;9.47;4.53;;;;;;;-2.01;100.00;101447.63;5013811;28;20192;-73
2022/03/11 00:12:47;;;;;;;4.10;3.27;;;;;;;-2.19;100.00;101456.19;5018347;28;20188;-73
2022/03/11 00:15:14;;;;;;;5.30;2.97;;;;;;;-2.17;100.00;101459.75;5022667;28;20227;-73
2022/03/11 00:17:43;;;;;;;3.57;3.27;;;;;;;-2.22;100.00;101434.72;5015930;28;20197;-74
2022/03/11 00:20:10;;;;;;;6.20;3.53;;;;;;;-2.18;100.00;101454.53;5027484;28;20200;-74
2022/03/11 00:22:37;;;;;;;5.97;4.30;;;;;;;-2.11;100.00;101444.16;5020573;28;20687;-74
2022/03/11 00:25:05;;;;;;;2.73;2.63;;;;;;;-2.22;100.00;101440.69;5014747;28;20589;-75
2022/03/11 00:27:31;;;;;;;7.23;4.77;;;;;;;-2.03;100.00;101441.50;5014273;28;20189;-74
2022/03/11 00:29:58;;;;;;;6.33;2.30;;;;;;;-2.18;100.00;101440.19;5015709;28;20197;-74
2022/03/11 00:32:25;;;;;;;6.77;3.67;;;;;;;-2.12;100.00;101437.28;5031839;28;20203;-74
2022/03/11 00:34:53;;;;;;;3.10;2.80;;;;;;;-2.05;100.00;101435.41;5031317;28;20225;-73
2022/03/11 00:37:20;;;;;;;4.60;3.13;;;;;;;-2.17;100.00;101433.44;5031431;28;20192;-74
2022/03/11 00:39:47;;;;;;;4.03;3.50;;;;;;;-2.14;100.00;101436.28;5024141;28;20271;-74
2022/03/11 00:42:14;;;;;;;3.00;2.80;;;;;;;-2.17;100.00;101424.16;5028999;28;20192;-73
2022/03/11 00:44:41;;;;;;;4.93;3.47;;;;;;;-2.11;100.00;101429.81;5017704;28;20227;-73
2022/03/11 00:47:09;;;;;;;4.40;3.50;;;;;;;-2.10;100.00;101435.75;5033443;28;20627;-73
2022/03/11 00:49:36;;;;;;;6.47;4.20;;;;;;;-2.26;100.00;101413.22;5033346;28;20283;-74
2022/03/11 00:52:04;;;;;;;6.57;4.30;;;;;;;-2.11;100.00;101449.22;5023324;28;20193;-73
2022/03/11 00:54:31;;;;;;;10.40;3.77;;;;;;;-2.19;100.00;101451.09;5014228;28;20217;-73
2022/03/11 00:56:58;;;;;;;5.53;3.03;;;;;;;-2.24;100.00;101437.09;5030452;28;20585;-75
2022/03/11 00:59:25;;;;;;;4.10;3.73;;;;;;;-2.15;100.00;101445.53;5015605;28;20189;-73
2022/03/11 01:01:52;;;;;;;3.40;3.10;;;;;;;-2.20;100.00;101450.97;5014109;28;20212;-73
2022/03/11 01:04:19;;;;;;;5.37;3.87;;;;;;;-2.17;100.00;101444.50;5014356;28;20224;-73
2022/03/11 01:06:45;;;;;;;9.17;4.50;;;;;;;-2.14;99.88;101451.50;5013898;28;20200;-74
2022/03/11 01:09:14;;;;;;;3.77;3.43;;;;;;;-2.16;97.97;101445.41;5015604;28;20208;-73
2022/03/11 01:11:40;;;;;;;2.93;2.83;;;;;;;-2.36;96.23;101438.59;5032889;28;20192;-75
2022/03/11 01:14:07;;;;;;;4.27;3.70;;;;;;;-2.22;95.70;101450.84;5033013;28;20566;-74
2022/03/11 01:16:34;;;;;;;7.63;3.47;;;;;;;-2.28;95.50;101439.28;5029678;28;20199;-73
2022/03/11 01:19:02;;;;;;;5.23;3.67;;;;;;;-2.39;94.53;101451.00;5013445;28;20205;-74
2022/03/11 01:21:28;;;;;;;3.40;3.07;;;;;;;-2.26;96.21;101458.94;5014246;28;20196;-74
2022/03/11 01:23:55;;;;;;;3.20;2.70;;;;;;;-2.26;97.32;101458.06;5014593;28;20666;-74
2022/03/11 01:26:23;;;;;;;3.50;3.20;;;;;;;-2.21;95.82;101454.28;5032632;28;20192;-74
2022/03/11 01:28:50;;;;;;;2.73;2.43;;;;;;;-2.51;96.18;101415.28;5033154;28;20196;-73
2022/03/11 01:31:18;;;;;;;4.80;4.20;;;;;;;-2.27;94.92;101454.63;5029062;28;20192;-75
2022/03/11 01:33:46;;;;;;;3.37;2.97;;;;;;;-2.29;93.81;101453.59;5013513;28;20328;-72
2022/03/11 01:36:14;;;;;;;6.30;4.03;;;;;;;-2.32;93.51;101452.44;5017695;28;20693;-74
2022/03/11 01:38:41;;;;;;;5.10;2.90;;;;;;;-2.28;96.20;101454.50;5033126;28;20226;-74
2022/03/11 01:41:09;;;;;;;3.33;3.03;;;;;;;-2.27;96.63;101452.09;5018986;28;20197;-74
2022/03/11 01:46:32;;;;;;;4.23;3.40;;;;;;;-2.14;92.22;101459.13;5088445;27;20553;-72
2022/03/11 01:49:00;;;;;;;4.70;2.77;;;;;;;-2.20;91.95;101449.31;5087845;28;20676;-74
2022/03/11 01:51:28;;;;;;;5.87;4.03;;;;;;;-2.50;90.67;101396.75;5076852;28;20687;-74
2022/03/11 01:53:55;;;;;;;4.03;3.10;;;;;;;-2.14;89.52;101454.91;5068882;28;20681;-73
2022/03/11 01:56:23;;;;;;;2.23;2.03;;;;;;;-2.13;89.26;101458.34;5079825;28;20185;-73
2022/03/11 01:58:51;;;;;;;3.73;3.53;;;;;;;-2.45;88.21;101408.94;5086792;28;20198;-72
2022/03/11 02:01:18;;;;;;;4.30;3.20;;;;;;;-2.31;89.91;101436.44;5088459;28;20187;-73
2022/03/11 02:03:46;;;;;;;6.77;4.13;;;;;;;-2.20;88.20;101445.88;5081836;28;20194;-73
2022/03/11 02:06:15;;;;;;;3.53;3.10;;;;;;;-2.27;87.58;101446.09;5068308;28;20643;-74
2022/03/11 02:08:42;;;;;;;1.53;1.53;;;;;;;-2.29;86.49;101438.38;5068805;28;20194;-73
2022/03/11 02:11:11;;;;;;;7.73;3.27;;;;;;;-2.41;86.19;101416.06;5073831;28;20669;-72
2022/03/11 02:13:45;;;;;;;11.07;4.50;;;;;;;-2.51;87.05;101412.75;5088575;28;20215;-73
2022/03/11 02:16:13;;;;;;;11.47;5.57;;;;;;;-2.31;89.52;101429.72;5086780;28;20206;-74
2022/03/11 02:18:40;;;;;;;4.03;3.67;;;;;;;-2.27;90.05;101435.94;5074038;28;20199;-73
2022/03/11 02:21:10;;;;;;;4.67;3.70;;;;;;;-2.27;89.01;101438.47;5068072;28;20198;-74
2022/03/11 02:23:43;;;;;;;8.03;4.47;;;;;;;-2.17;89.58;101448.69;5068164;28;20230;-73
2022/03/11 02:26:10;;;;;;;3.80;3.33;;;;;;;-2.13;89.63;101449.09;5068302;28;20288;-73
2022/03/11 02:28:37;;;;;;;5.07;3.13;;;;;;;-2.23;87.74;101443.06;5068068;28;20669;-73
2022/03/11 02:31:04;;;;;;;4.53;3.03;;;;;;;-2.44;85.47;101401.47;5069435;28;20191;-73
2022/03/11 02:33:30;;;;;;;2.47;2.30;;;;;;;-2.35;84.14;101453.03;5087427;28;20190;-72
2022/03/11 02:35:57;;;;;;;3.30;2.80;;;;;;;-2.30;88.43;101458.53;5085343;28;20555;-74
2022/03/11 02:38:24;;;;;;;3.13;1.77;;;;;;;-2.43;86.26;101454.06;5085962;28;20202;-74
2022/03/11 02:40:53;;;;;;;4.40;4.00;;;;;;;-2.36;88.40;101461.44;5081411;28;20190;-74
2022/03/11 02:43:20;;;;;;;5.97;4.37;;;;;;;-2.65;89.22;101441.13;5076066;28;20224;-72
2022/03/11 02:45:46;;;;;;;3.43;2.80;;;;;;;-2.62;88.89;101458.25;5081777;28;20728;-74
2022/03/11 02:48:13;;;;;;;3.67;3.30;;;;;;;-2.62;88.59;101466.75;5078922;28;20187;-73
2022/03/11 02:50:40;;;;;;;5.70;4.53;;;;;;;-2.55;90.94;101469.09;5074385;28;20206;-72
2022/03/11 02:53:07;;;;;;;20.83;9.70;;;;;;;-2.58;91.14;101463.75;5087547;28;20288;-72
2022/03/11 02:55:34;;;;;;;3.10;2.90;;;;;;;-2.66;90.21;101467.25;5086183;28;20197;-73
2022/03/11 02:58:02;;;;;;;4.10;3.50;;;;;;;-2.67;91.07;101467.97;5053860;28;20619;-72
2022/03/11 03:00:29;;;;;;;3.43;3.00;;;;;;;-2.65;93.08;101463.94;5056803;28;20567;-73
2022/03/11 03:02:56;;;;;;;3.13;2.83;;;;;;;-2.80;91.81;101442.28;5054336;28;20203;-72
2022/03/11 03:05:22;;;;;;;6.47;2.87;;;;;;;-2.95;91.46;101424.78;5054165;28;20231;-74
2022/03/11 03:07:50;;;;;;;3.27;2.80;;;;;;;-2.59;93.35;101469.56;5074006;28;21250;-73
2022/03/11 03:10:17;;;;;;;4.90;4.43;;;;;;;-2.51;92.45;101470.25;5065064;28;20692;-73
2022/03/11 03:12:43;;;;;;;5.03;4.50;;;;;;;-2.53;91.94;101480.25;5073797;28;20201;-73
2022/03/11 03:15:12;;;;;;;7.53;5.60;;;;;;;-2.38;91.59;101482.38;5071811;28;20198;-74
2022/03/11 03:17:38;;;;;;;8.27;4.37;;;;;;;-2.36;91.67;101481.78;5073822;28;20195;-72
2022/03/11 03:20:08;;;;;;;6.13;4.00;;;;;;;-2.38;89.77;101480.72;5074157;28;20202;-74
2022/03/11 03:22:35;;;;;;;5.17;4.37;;;;;;;-2.40;90.44;101489.88;5073621;28;20195;-72
2022/03/11 03:25:02;;;;;;;3.57;3.33;;;;;;;-2.41;88.98;101477.91;5073063;28;20225;-74
2022/03/11 03:27:29;;;;;;;7.00;5.03;;;;;;;-2.39;86.22;101485.69;5067550;28;20249;-73
2022/03/11 03:29:56;;;;;;;2.53;2.33;;;;;;;-2.68;85.51;101443.38;5061118;28;20198;-73
2022/03/11 03:32:24;;;;;;;5.57;3.70;;;;;;;-2.46;86.02;101475.75;5066670;28;20308;-73
2022/03/11 03:34:51;;;;;;;9.93;5.90;;;;;;;-2.37;85.06;101476.53;5063996;28;20195;-73
2022/03/11 03:37:17;;;;;;;11.43;5.63;;;;;;;-2.39;84.47;101473.00;5054647;28;20637;-72
2022/03/11 03:39:44;;;;;;;4.17;2.77;;;;;;;-2.40;84.95;101471.19;5033451;28;20203;-74
2022/03/11 03:42:11;;;;;;;9.33;4.83;;;;;;;-2.47;86.20;101471.41;5052426;28;20295;-74
2022/03/11 03:44:38;;;;;;;9.27;5.30;;;;;;;-2.76;87.63;101415.53;5071424;28;20234;-73
2022/03/11 03:47:05;;;;;;;7.20;4.70;;;;;;;-2.54;90.86;101450.56;5060831;28;20628;-72
2022/03/11 03:49:34;;;;;;;9.63;5.60;;;;;;;-2.43;88.37;101468.38;5068151;28;20225;-75
2022/03/11 03:52:01;;;;;;;4.87;3.33;;;;;;;-2.44;89.43;101477.66;5073021;28;20213;-74
2022/03/11 03:54:28;;;;;;;4.20;3.80;;;;;;;-2.42;91.43;101481.19;5073096;28;20664;-73
2022/03/11 03:56:55;;;;;;;7.20;5.17;;;;;;;-2.53;91.90;101462.47;5058857;28;20224;-72
2022/03/11 03:59:24;;;;;;;10.43;5.03;;;;;;;-2.36;93.30;101475.78;5053772;28;20666;-74
2022/03/11 04:01:50;;;;;;;45.13;16.50;;;;;;;-2.37;94.90;101476.53;5052984;28;20253;-73
2022/03/11 04:04:17;;;;;;;11.43;7.07;;;;;;;-2.43;93.91;101478.53;5053242;28;20596;-75
2022/03/11 04:06:46;;;;;;;8.57;5.40;;;;;;;-2.39;95.18;101480.59;5052864;28;20230;-74
2022/03/11 04:09:12;;;;;;;6.40;5.43;;;;;;;-2.44;95.69;101467.50;5059838;28;20192;-73
2022/03/11 04:11:40;;;;;;;2.93;2.50;;;;;;;-2.52;90.15;101494.75;5060775;28;20199;-74
2022/03/11 04:14:07;;;;;;;7.87;3.47;;;;;;;-2.62;88.70;101492.16;5073029;28;20202;-73
2022/03/11 04:16:34;;;;;;;12.80;3.63;;;;;;;-2.61;90.48;101493.94;5071096;28;20661;-72
2022/03/11 04:19:01;;;;;;;7.27;5.63;;;;;;;-2.61;92.66;101491.41;5061882;28;20633;-73
2022/03/11 04:21:28;;;;;;;3.87;3.50;;;;;;;-2.69;92.80;101484.75;5053043;28;20249;-72
2022/03/11 04:23:57;;;;;;;8.03;4.90;;;;;;;-2.71;92.78;101498.91;5052790;28;20195;-74
2022/03/11 04:26:23;;;;;;;6.33;5.07;;;;;;;-2.81;92.70;101481.09;5060533;28;20222;-72
2022/03/11 04:28:50;;;;;;;9.40;6.17;;;;;;;-2.74;93.45;101490.13;5070398;28;20579;-73
2022/03/11 04:31:17;;;;;;;7.33;5.10;;;;;;;-3.05;93.88;101445.91;5068045;28;20199;-73
2022/03/11 04:33:44;;;;;;;10.87;5.93;;;;;;;-2.71;90.84;101491.31;5053480;28;20190;-72
2022/03/11 04:36:11;;;;;;;9.00;5.87;;;;;;;-2.61;91.79;101509.16;5058912;28;20348;-74
2022/03/11 04:38:38;;;;;;;9.60;6.40;;;;;;;-2.62;90.25;101502.31;5070586;28;20191;-73
2022/03/11 04:41:07;;;;;;;8.20;5.70;;;;;;;-2.55;86.73;101499.56;5067051;28;20198;-73
2022/03/11 04:43:33;;;;;;;9.47;5.87;;;;;;;-2.56;85.69;101502.84;5055154;28;20554;-74
2022/03/11 04:46:00;;;;;;;8.53;6.53;;;;;;;-2.60;87.45;101480.47;5056119;28;20226;-74
2022/03/11 04:48:27;;;;;;;12.50;6.90;;;;;;;-2.46;88.93;101494.38;5064557;28;20673;-74
2022/03/11 04:50:54;;;;;;;13.83;6.53;;;;;;;-2.35;91.68;101508.91;5062277;28;20668;-72
2022/03/11 04:53:20;;;;;;;11.67;6.13;;;;;;;-2.37;92.06;101494.31;5065169;28;20624;-74
2022/03/11 04:55:47;;;;;;;10.30;6.13;;;;;;;-2.26;92.44;101502.13;5067545;28;20743;-74
2022/03/11 04:58:15;;;;;;;11.10;6.50;;;;;;;-2.13;91.47;101497.34;5051959;28;20735;-73
2022/03/11 05:00:42;;;;;;;9.83;6.40;;;;;;;-2.06;90.45;101514.03;5051523;28;20195;-76
2022/03/11 05:03:09;;;;;;;10.47;5.80;;;;;;;-2.08;92.42;101492.69;5051842;28;20696;-72
2022/03/11 05:05:36;;;;;;;11.17;6.47;;;;;;;-2.16;90.55;101475.88;5051485;28;20651;-73
2022/03/11 05:08:02;;;;;;;8.47;5.67;;;;;;;-2.18;85.37;101472.31;5051292;28;20610;-72
2022/03/11 05:10:29;;;;;;;10.70;6.23;;;;;;;-2.00;81.24;101494.25;5051307;28;20196;-73
2022/03/11 05:12:56;;;;;;;9.83;6.30;;;;;;;-1.95;84.08;101508.22;5072502;28;20202;-72
2022/03/11 05:15:26;;;;;;;8.50;5.97;;;;;;;-1.91;83.39;101509.38;5070131;28;20229;-74
2022/03/11 05:17:52;;;;;;;10.43;5.93;;;;;;;-1.98;83.06;101515.59;5071416;28;20195;-73
2022/03/11 05:20:20;;;;;;;8.90;5.40;;;;;;;-1.88;79.43;101513.09;5071611;28;20234;-75
2022/03/11 05:22:46;;;;;;;10.60;6.50;;;;;;;-1.82;80.32;101520.38;5063556;28;20194;-72
2022/03/11 05:25:13;;;;;;;5.43;3.87;;;;;;;-1.86;78.72;101506.50;5066072;28;20191;-74
2022/03/11 05:27:40;;;;;;;14.60;7.10;;;;;;;-1.73;73.38;101514.41;5056337;28;20207;-73
2022/03/11 05:30:09;;;;;;;12.87;6.53;;;;;;;-1.65;72.76;101505.81;5070798;28;20191;-75
2022/03/11 05:32:43;;;;;;;7.70;3.40;;;;;;;-2.05;72.31;101465.00;5053519;28;20196;-72
2022/03/11 05:35:10;;;;;;;6.73;4.13;;;;;;;-1.85;70.89;101497.19;5072003;28;20202;-73
2022/03/11 05:37:37;;;;;;;9.53;5.57;;;;;;;-1.85;72.60;101508.25;5068771;28;20234;-74
2022/03/11 05:40:05;;;;;;;13.47;6.47;;;;;;;-1.77;72.12;101503.84;5062598;28;20196;-72
2022/03/11 05:42:31;;;;;;;10.43;6.00;;;;;;;-1.77;70.86;101486.94;5050538;28;20579;-74
2022/03/11 05:44:58;;;;;;;10.30;5.27;;;;;;;-1.70;68.19;101507.06;5050302;28;20709;-74
2022/03/11 05:47:25;;;;;;;12.40;5.73;;;;;;;-1.71;68.08;101504.41;5047491;28;20223;-74
2022/03/11 05:49:54;;;;;;;12.97;7.40;;;;;;;-1.59;68.46;101507.97;5050769;28;20701;-74
2022/03/11 05:52:22;;;;;;;18.67;6.37;;;;;;;-1.73;68.02;101505.91;5050192;28;20214;-74
2022/03/11 05:54:49;;;;;;;12.00;3.63;;;;;;;-1.76;68.37;101514.16;5038704;28;20689;-74
2022/03/11 05:57:16;;;;;;;12.63;5.90;;;;;;;-1.55;75.70;101520.19;5035871;28;20203;-72
2022/03/11 05:59:42;;;;;;;14.80;6.27;;;;;;;-1.36;73.76;101520.09;5046816;28;20200;-75
2022/03/11 06:02:09;;;;;;;14.90;6.40;;;;;;;-1.22;68.68;101529.81;5047784;28;20662;-74
2022/03/11 06:04:37;;;;;;;5.97;5.23;;;;;;;-1.21;65.98;101523.94;5050458;28;20674;-76
2022/03/11 06:07:06;;;;;;;9.60;5.53;;;;;;;-1.19;64.68;101520.78;5049850;28;20230;-75
2022/03/11 06:09:33;;;;;;;7.53;4.07;;;;;;;-1.23;64.63;101512.75;5050322;28;20191;-74
2022/03/11 06:12:00;;;;;;;9.23;4.47;;;;;;;-1.00;63.74;101513.03;5045840;28;20190;-73
2022/03/11 06:14:27;;;;;;;5.83;4.30;;;;;;;-0.82;60.93;101528.94;5047570;28;20262;-73
2022/03/11 06:16:54;;;;;;;9.37;4.10;;;;;;;-0.68;60.72;101536.94;5048321;28;20191;-75
2022/03/11 06:19:21;;;;;;;8.60;4.10;;;;;;;-0.57;59.99;101538.69;5046437;28;20206;-73
2022/03/11 06:21:47;;;;;;;8.97;4.67;;;;;;;-0.33;58.71;101534.75;5050552;28;20203;-75
2022/03/11 06:24:15;;;;;;;5.33;3.83;;;;;;;-0.04;58.34;101537.09;5062133;28;20571;-74
2022/03/11 06:26:43;;;;;;;18.53;6.63;;;;;;;-0.08;62.45;101538.50;5031219;28;20235;-74
2022/03/11 06:29:10;;;;;;;9.17;4.43;;;;;;;-0.19;59.36;101543.50;5031464;28;20192;-72
2022/03/11 06:31:37;;;;;;;8.60;4.67;;;;;;;-0.11;64.46;101547.56;5032530;28;20204;-74
2022/03/11 06:34:04;;;;;;;7.87;4.90;;;;;;;0.30;59.56;101549.19;5034970;28;20188;-74
2022/03/11 06:36:32;;;;;;;5.60;4.10;;;;;;;0.47;58.86;101547.94;5034745;28;20682;-73
2022/03/11 06:38:59;;;;;;;7.10;4.00;;;;;;;0.07;57.27;101512.44;5035497;28;20591;-74
2022/03/11 06:41:27;;;;;;;12.87;3.40;;;;;;;0.31;56.13;101545.88;5072923;28;20248;-74
2022/03/11 06:43:54;;;;;;;5.10;4.10;;;;;;;0.32;55.14;101545.06;5054688;28;20195;-75
2022/03/11 06:46:21;;;;;;;5.10;4.60;;;;;;;0.60;54.66;101554.91;5052518;28;20235;-75
2022/03/11 06:48:48;;;;;;;6.77;4.93;;;;;;;0.77;55.38;101546.88;5046593;28;20214;-73
2022/03/11 06:51:14;;;;;;;12.43;5.00;;;;;;;0.63;55.40;101553.50;5045969;28;20215;-75
2022/03/11 06:53:41;;;;;;;12.80;5.13;;;;;;;0.44;55.01;101550.25;5046268;28;20199;-76
2022/03/11 06:56:08;;;;;;;7.20;5.20;;;;;;;0.59;55.91;101548.91;5045900;28;20207;-75
2022/03/11 06:58:36;;;;;;;11.90;6.13;;;;;;;0.88;53.84;101551.16;5045427;28;20204;-74
2022/03/11 07:01:03;;;;;;;11.33;6.07;;;;;;;1.10;53.67;101549.47;5045851;28;20265;-74
2022/03/11 07:03:30;;;;;;;7.37;4.57;;;;;;;0.79;53.75;101555.53;5046133;28;20286;-72
2022/03/11 07:05:57;;;;;;;5.43;3.93;;;;;;;0.32;53.60;101552.72;5045055;28;20203;-72
2022/03/11 07:08:24;;;;;;;4.77;3.73;;;;;;;0.09;53.02;101544.94;5040761;28;20218;-78
2022/03/11 07:10:51;;;;;;;3.90;3.53;;;;;;;0.17;53.59;101536.25;5044291;28;20200;-76
2022/03/11 07:13:18;;;;;;;5.60;3.53;;;;;;;0.39;53.71;101549.88;5044957;28;20303;-72
2022/03/11 07:15:46;;;;;;;12.40;5.33;;;;;;;0.91;53.96;101554.84;5044700;28;20203;-73
2022/03/11 07:18:13;;;;;;;9.43;4.63;;;;;;;0.81;54.41;101561.69;5044586;28;20200;-73
2022/03/11 07:20:40;;;;;;;7.70;4.10;;;;;;;0.45;52.29;101532.53;5044542;28;20204;-72
2022/03/11 07:23:07;;;;;;;7.03;4.30;;;;;;;1.22;67.30;101557.16;5044516;28;20607;-77
2022/03/11 07:25:36;;;;;;;7.67;5.03;;;;;;;1.60;60.43;101554.94;5042308;28;20250;-71
2022/03/11 07:28:03;;;;;;;8.03;4.37;;;;;;;1.26;52.74;101564.28;5044607;28;20709;-79
2022/03/11 07:30:29;;;;;;;4.47;3.40;;;;;;;0.99;52.99;101556.31;5045415;28;20211;-74
2022/03/11 07:32:58;;;;;;;6.63;3.13;;;;;;;0.15;53.48;101558.16;5045855;28;20211;-74
2022/03/11 07:35:24;;;;;;;4.97;3.40;;;;;;;-0.35;55.21;101566.81;5045118;28;20208;-74
2022/03/11 07:37:51;;;;;;;7.13;3.97;;;;;;;0.10;55.84;101539.06;5046753;28;20294;-73
2022/03/11 07:40:18;;;;;;;4.43;3.43;;;;;;;0.44;54.77;101553.72;5052741;28;20233;-73
2022/03/11 07:42:45;;;;;;;7.50;3.87;;;;;;;0.77;54.72;101542.69;5049362;28;20203;-72
2022/03/11 07:45:13;;;;;;;7.67;4.77;;;;;;;0.61;53.55;101529.50;5032650;28;20239;-74
2022/03/11 07:47:40;;;;;;;7.00;4.33;;;;;;;0.55;52.84;101551.09;5033360;28;20231;-73
2022/03/11 07:50:11;;;;;;;6.43;3.63;;;;;;;0.65;54.32;101554.47;5033790;28;20200;-73
2022/03/11 07:52:39;;;;;;;7.67;5.00;;;;;;;1.08;52.93;101540.78;5033069;28;20247;-74
2022/03/11 07:55:08;;;;;;;7.53;3.87;;;;;;;1.50;52.24;101551.66;5033644;28;20207;-73
2022/03/11 07:57:36;;;;;;;6.53;4.40;;;;;;;1.10;52.06;101551.13;5033438;28;20284;-73
2022/03/11 08:00:04;;;;;;;8.77;4.20;;;;;;;1.45;50.15;101545.34;5033583;28;20279;-73
2022/03/11 08:02:32;;;;;;;6.83;4.00;;;;;;;1.30;49.51;101550.97;5033180;28;20194;-75
2022/03/11 08:04:59;;;;;;;4.03;3.63;;;;;;;1.13;50.27;101531.81;5033326;28;20681;-74
2022/03/11 08:07:27;;;;;;;7.10;4.37;;;;;;;1.57;49.71;101539.38;5032983;28;20748;-74
2022/03/11 08:09:54;;;;;;;9.47;5.73;;;;;;;1.86;50.46;101535.59;5033469;28;20204;-73
2022/03/11 08:12:21;;;;;;;5.27;3.47;;;;;;;1.30;50.32;101533.06;5033092;28;20196;-73
2022/03/11 08:14:48;;;;;;;4.10;3.63;;;;;;;0.69;51.92;101537.75;5033268;28;20283;-74
2022/03/11 08:17:15;;;;;;;5.77;3.60;;;;;;;0.85;52.33;101533.97;5032976;28;20196;-73
2022/03/11 08:19:42;;;;;;;6.87;4.40;;;;;;;1.04;51.44;101537.88;5032935;28;20207;-74
2022/03/11 08:22:11;;;;;;;6.63;4.50;;;;;;;1.33;49.41;101540.97;5033039;28;20219;-73
2022/03/11 08:24:40;;;;;;;6.67;4.63;;;;;;;1.84;49.14;101541.38;5032893;28;20747;-74
2022/03/11 08:27:07;;;;;;;4.67;3.67;;;;;;;1.82;47.98;101499.47;5032932;28;20224;-73
2022/03/11 08:29:34;;;;;;;6.13;4.50;;;;;;;1.16;48.23;101536.25;5032949;28;20196;-74
2022/03/11 08:32:02;;;;;;;6.53;4.20;;;;;;;1.36;49.40;101530.97;5032677;28;20200;-73
2022/03/11 08:34:29;;;;;;;6.13;3.50;;;;;;;1.59;47.16;101540.34;5032515;28;20670;-74
2022/03/11 08:36:55;;;;;;;7.73;4.43;;;;;;;1.57;46.70;101541.94;5032480;28;20200;-73
2022/03/11 08:39:22;;;;;;;6.00;3.53;;;;;;;0.97;47.89;101521.22;5032481;28;20192;-73
2022/03/11 08:41:50;;;;;;;4.13;2.93;;;;;;;0.89;47.33;101535.09;5031770;28;20200;-75
2022/03/11 08:44:17;;;;;;;8.23;3.73;;;;;;;0.70;48.39;101519.13;5032663;28;20246;-72
2022/03/11 08:46:44;;;;;;;3.53;3.20;;;;;;;0.90;48.74;101526.63;5032183;28;20228;-74
2022/03/11 08:49:11;;;;;;;4.67;3.83;;;;;;;0.78;46.81;101525.72;5032411;28;20192;-74
2022/03/11 08:51:39;;;;;;;10.70;4.57;;;;;;;0.80;47.75;101512.28;5032388;28;20632;-75
2022/03/11 08:54:06;;;;;;;6.50;3.87;;;;;;;0.40;46.37;101530.38;5031760;28;20200;-76
2022/03/11 08:56:33;;;;;;;6.57;3.93;;;;;;;0.10;47.73;101500.81;5032124;28;20196;-73
2022/03/11 08:59:01;;;;;;;9.20;4.43;;;;;;;0.52;49.10;101525.34;5031911;28;20203;-76
2022/03/11 09:01:28;;;;;;;6.10;3.47;;;;;;;-0.07;45.96;101529.16;5031922;28;20207;-75
2022/03/11 09:03:54;;;;;;;6.00;3.60;;;;;;;0.41;46.60;101522.84;5032400;28;20196;-74
2022/03/11 09:06:22;;;;;;;5.07;3.10;;;;;;;0.62;47.10;101520.19;5032363;28;20204;-75
2022/03/11 09:08:49;;;;;;;5.33;3.20;;;;;;;0.48;46.11;101499.59;5032237;28;20266;-75
2022/03/11 09:11:15;;;;;;;11.47;4.50;;;;;;;0.57;45.96;101496.84;5031075;28;20200;-75
2022/03/11 09:13:43;;;;;;;2.60;2.40;;;;;;;0.47;45.52;101517.31;5032284;28;20200;-74
2022/03/11 09:16:11;;;;;;;3.83;2.83;;;;;;;0.46;46.23;101515.56;5032211;28;20200;-74
2022/03/11 09:18:38;;;;;;;7.17;4.63;;;;;;;0.36;47.69;101487.53;5032170;28;20199;-74
2022/03/11 09:21:05;;;;;;;2.60;2.40;;;;;;;0.32;47.53;101486.41;5031749;28;20207;-76
2022/03/11 09:23:32;;;;;;;4.10;3.70;;;;;;;0.66;47.45;101524.75;5032108;28;20222;-76
2022/03/11 09:25:59;;;;;;;6.67;3.70;;;;;;;0.83;48.38;101506.50;5032084;28;20196;-71
2022/03/11 09:28:25;;;;;;;6.07;3.37;;;;;;;1.03;47.88;101514.03;5031647;28;20227;-74
2022/03/11 09:30:52;;;;;;;9.50;4.17;;;;;;;1.14;48.95;101505.47;5031593;28;20196;-73
2022/03/11 09:33:21;;;;;;;3.20;2.87;;;;;;;1.05;47.99;101509.03;5032075;28;20215;-73
2022/03/11 09:35:47;;;;;;;5.43;4.33;;;;;;;1.37;48.01;101497.00;5032733;28;20200;-74
2022/03/11 09:38:14;;;;;;;8.83;4.20;;;;;;;1.56;47.97;101506.91;5032036;28;20595;-73
2022/03/11 09:40:43;;;;;;;3.57;3.27;;;;;;;1.47;47.28;101499.44;5031025;28;20204;-75
2022/03/11 09:43:12;;;;;;;2.40;2.20;;;;;;;1.11;47.45;101512.03;5032202;28;20257;-75
2022/03/11 09:45:40;;;;;;;8.90;4.47;;;;;;;1.48;49.03;101497.00;5038612;28;20289;-74
2022/03/11 09:48:08;;;;;;;4.03;2.87;;;;;;;1.25;47.88;101506.31;5050963;28;20231;-76
2022/03/11 09:50:36;;;;;;;3.17;2.60;;;;;;;1.48;51.72;101491.00;5051448;28;20207;-72
2022/03/11 09:53:03;;;;;;;6.47;3.07;;;;;;;1.63;53.52;101478.47;5051383;28;20192;-75
2022/03/11 09:55:30;;;;;;;4.20;3.13;;;;;;;1.63;48.03;101496.34;5051718;28;20199;-73
2022/03/11 09:57:57;;;;;;;6.23;4.00;;;;;;;1.90;47.00;101495.78;5051296;28;20237;-75
2022/03/11 10:00:24;;;;;;;7.87;3.90;;;;;;;1.95;47.17;101491.91;5051118;28;20198;-75
2022/03/11 10:02:51;;;;;;;9.10;3.93;;;;;;;1.55;49.14;101436.13;5051507;28;20207;-74
2022/03/11 10:05:18;;;;;;;8.03;4.90;;;;;;;1.71;48.57;101449.25;5051165;28;20195;-76
2022/03/11 10:07:59;;;;;;;4.87;3.37;;;;;;;1.13;48.28;101497.72;5054103;28;20717;-77
2022/03/11 10:10:26;;;;;;;5.80;3.97;;;;;;;1.43;49.31;101489.75;5054725;28;20278;-74
2022/03/11 10:12:53;;;;;;;8.33;5.47;;;;;;;1.56;49.23;101478.78;5055337;28;20203;-73
2022/03/11 10:15:28;;;;;;;7.90;5.13;;;;;;;1.93;48.43;101478.09;5055057;28;20227;-77
2022/03/11 10:17:55;;;;;;;13.00;6.27;;;;;;;1.89;48.75;101477.00;5055080;28;20230;-76
2022/03/11 10:20:22;;;;;;;12.23;6.00;;;;;;;1.87;49.16;101462.31;5055365;28;20196;-76
2022/03/11 10:22:51;;;;;;;4.83;4.07;;;;;;;1.86;49.40;101442.63;5055096;28;20224;-75
2022/03/11 10:25:19;;;;;;;23.03;6.70;;;;;;;1.72;48.49;101467.22;5054853;28;20214;-74
2022/03/11 10:27:57;;;;;;;24.07;10.10;;;;;;;1.23;49.66;101477.19;5055050;28;20658;-73
2022/03/11 10:30:25;;;;;;;10.40;7.33;;;;;;;1.47;49.71;101479.91;5055031;28;20198;-76
2022/03/11 10:32:52;;;;;;;8.60;4.90;;;;;;;1.68;49.33;101456.66;5054700;28;20585;-74
2022/03/11 10:35:20;;;;;;;11.03;5.37;;;;;;;2.28;48.49;101476.34;5054921;28;20195;-75
2022/03/11 10:37:59;;;;;;;12.63;5.00;;;;;;;1.75;49.26;101459.78;5055100;28;20285;-75
2022/03/11 10:40:27;;;;;;;7.87;4.23;;;;;;;1.85;49.59;101449.44;5053956;28;20230;-73
2022/03/11 10:43:09;;;;;;;10.77;5.13;;;;;;;1.48;49.01;101356.47;5054862;28;20199;-74
2022/03/11 10:45:48;;;;;;;5.57;3.30;;;;;;;1.68;48.55;101456.66;5054488;28;20239;-74
2022/03/11 10:48:15;;;;;;;5.40;4.20;;;;;;;1.49;48.38;101452.81;5054780;28;20246;-74
2022/03/11 10:50:42;;;;;;;11.23;4.80;;;;;;;1.68;47.93;101406.44;5054534;28;20666;-74
2022/03/11 10:53:12;;;;;;;11.60;6.30;;;;;;;2.20;48.41;101449.38;5054407;28;20199;-75
2022/03/11 10:55:42;;;;;;;13.23;6.67;;;;;;;2.77;48.33;101452.47;5054276;28;20210;-72
2022/03/11 10:58:10;;;;;;;13.43;5.83;;;;;;;2.89;46.97;101431.94;5054654;28;20200;-74
2022/03/11 11:00:39;;;;;;;11.47;4.90;;;;;;;2.29;47.08;101455.13;5054182;28;20282;-74
2022/03/11 11:03:07;;;;;;;5.47;4.23;;;;;;;2.41;48.96;101455.09;5054557;28;20282;-74
2022/03/11 11:05:35;;;;;;;6.93;4.03;;;;;;;2.40;48.86;101451.63;5054469;28;20254;-73
2022/03/11 11:08:03;;;;;;;6.63;4.33;;;;;;;2.08;48.60;101434.81;5054143;28;20659;-73
2022/03/11 11:10:34;;;;;;;6.97;4.93;;;;;;;2.33;49.14;101416.16;5053291;28;20674;-75
2022/03/11 11:13:01;;;;;;;16.07;7.23;;;;;;;2.14;49.17;101402.88;5054137;28;20198;-73
2022/03/11 11:15:28;;;;;;;12.20;6.30;;;;;;;2.29;48.21;101434.63;5054287;28;20195;-74
2022/03/11 11:17:55;;;;;;;5.67;3.17;;;;;;;1.90;48.20;101419.94;5053950;28;20221;-75
2022/03/11 11:20:24;;;;;;;14.53;7.50;;;;;;;2.10;50.76;101426.50;5053833;28;20191;-74
2022/03/11 11:22:53;;;;;;;7.17;4.77;;;;;;;1.54;50.16;101419.88;5053867;28;20199;-74
2022/03/11 11:25:21;;;;;;;9.13;6.20;;;;;;;1.90;49.75;101416.50;5053813;28;20187;-75
2022/03/11 11:27:52;;;;;;;5.53;4.90;;;;;;;2.15;49.94;101411.44;5053704;28;20231;-75
2022/03/11 11:30:21;;;;;;;22.27;7.47;;;;;;;2.87;61.59;101392.50;5054086;28;20222;-70